createdAt,value
2018-10-05T00:01:51.241Z,3.73
2018-10-05T00:04:18.979Z,3.37
2018-10-05T00:06:47.349Z,4.20
2018-10-05T00:09:15.008Z,3.70
2018-10-05T00:11:42.770Z,5.10
2018-10-05T00:14:10.697Z,5.60
2018-10-05T00:16:38.371Z,4.37
2018-10-05T00:19:06.317Z,4.00
2018-10-05T00:21:34.016Z,4.50
2018-10-05T00:24:02.164Z,4.93
2018-10-05T00:26:29.831Z,3.53
2018-10-05T00:33:49.980Z,4.00
2018-10-05T00:36:17.695Z,4.27
2018-10-05T00:38:45.800Z,3.97
2018-10-05T00:41:13.459Z,4.20
2018-10-05T00:43:41.218Z,3.73
2018-10-05T00:46:08.905Z,4.97
2018-10-05T00:48:36.784Z,5.40
2018-10-05T00:51:04.475Z,5.00
2018-10-05T00:53:32.237Z,4.87
2018-10-05T00:55:59.946Z,4.80
2018-10-05T00:58:27.665Z,3.97
2018-10-05T01:00:55.408Z,3.93
2018-10-05T01:03:23.169Z,4.40
2018-10-05T01:05:50.864Z,4.43
2018-10-05T01:08:18.568Z,3.70
2018-10-05T01:10:46.329Z,3.63
2018-10-05T01:13:13.992Z,3.20
2018-10-05T01:15:41.746Z,2.63
2018-10-05T01:18:09.390Z,3.00
2018-10-05T01:20:37.188Z,2.97
2018-10-05T01:23:04.862Z,3.30
2018-10-05T01:25:32.472Z,3.63
2018-10-05T01:28:00.356Z,3.23
2018-10-05T01:30:27.993Z,4.10
2018-10-05T01:32:55.665Z,3.77
2018-10-05T01:35:24.220Z,3.80
2018-10-05T01:37:51.840Z,2.93
2018-10-05T01:40:19.485Z,3.23
2018-10-05T01:42:47.148Z,3.60
2018-10-05T01:45:15.103Z,3.10
2018-10-05T01:47:43.007Z,3.33
2018-10-05T01:50:10.701Z,3.30
2018-10-05T01:52:44.919Z,2.90
2018-10-05T01:55:12.640Z,3.10
2018-10-05T01:57:40.300Z,2.70
2018-10-05T02:00:07.989Z,3.10
2018-10-05T02:02:35.918Z,3.27
2018-10-05T02:05:03.864Z,3.17
2018-10-05T02:07:31.565Z,3.27
2018-10-05T02:09:59.320Z,3.07
2018-10-05T02:12:26.955Z,3.10
2018-10-05T02:14:54.851Z,3.63
2018-10-05T02:17:22.548Z,3.50
2018-10-05T02:19:50.149Z,3.63
2018-10-05T02:22:17.873Z,4.20
2018-10-05T02:24:45.569Z,3.73
2018-10-05T02:27:13.185Z,3.30
2018-10-05T02:29:41.052Z,3.53
2018-10-05T02:32:09.872Z,3.30
2018-10-05T02:34:37.620Z,2.90
2018-10-05T02:37:05.320Z,2.80
2018-10-05T02:39:33.038Z,3.10
2018-10-05T02:42:00.744Z,2.70
2018-10-05T02:44:28.394Z,3.20
2018-10-05T02:46:56.084Z,3.03
2018-10-05T02:49:24.068Z,3.27
2018-10-05T02:51:51.787Z,3.20
2018-10-05T02:54:19.448Z,3.00
2018-10-05T02:56:47.165Z,3.30
2018-10-05T02:59:14.872Z,3.60
2018-10-05T03:01:53.896Z,4.30
2018-10-05T03:04:21.612Z,3.93
2018-10-05T03:06:49.285Z,3.80
2018-10-05T03:09:16.993Z,3.53
2018-10-05T03:11:44.646Z,3.57
2018-10-05T03:14:12.300Z,3.80
2018-10-05T03:16:40.016Z,3.50
2018-10-05T03:19:07.718Z,3.13
2018-10-05T03:21:35.356Z,3.13
2018-10-05T03:24:03.040Z,3.40
2018-10-05T03:26:30.729Z,3.57
2018-10-05T03:28:58.394Z,4.00
2018-10-05T03:31:26.097Z,3.03
2018-10-05T03:33:53.790Z,3.67
2018-10-05T03:36:21.456Z,4.00
2018-10-05T03:38:49.213Z,4.20
2018-10-05T03:41:16.901Z,3.90
2018-10-05T03:43:44.572Z,3.80
2018-10-05T03:46:12.282Z,3.40
2018-10-05T03:48:39.902Z,3.97
2018-10-05T03:51:07.590Z,3.40
2018-10-05T03:53:35.240Z,3.63
2018-10-05T03:56:02.919Z,4.13
2018-10-05T03:58:30.584Z,3.73
2018-10-05T04:00:58.265Z,3.30
2018-10-05T04:03:25.928Z,3.33
2018-10-05T04:05:53.617Z,3.40
2018-10-05T04:08:21.306Z,3.23
2018-10-05T04:10:48.968Z,3.90
2018-10-05T04:13:16.609Z,4.00
2018-10-05T04:15:44.305Z,2.90
2018-10-05T04:18:12.024Z,3.23
2018-10-05T04:20:39.736Z,3.20
2018-10-05T04:23:07.392Z,3.97
2018-10-05T04:25:35.328Z,4.33
2018-10-05T04:28:02.991Z,3.70
2018-10-05T04:30:30.676Z,3.40
2018-10-05T04:32:58.332Z,3.27
2018-10-05T04:35:26.039Z,4.23
2018-10-05T04:37:53.868Z,5.13
2018-10-05T04:40:21.489Z,5.00
2018-10-05T04:42:49.192Z,4.20
2018-10-05T04:45:17.317Z,4.20
2018-10-05T04:47:44.968Z,4.03
2018-10-05T04:50:12.568Z,4.13
2018-10-05T04:52:40.208Z,3.80
2018-10-05T04:55:07.887Z,4.80
2018-10-05T04:57:38.646Z,4.40
2018-10-05T05:00:06.635Z,4.20
2018-10-05T05:02:34.341Z,4.00
2018-10-05T05:05:02.593Z,3.80
2018-10-05T05:07:30.496Z,3.37
2018-10-05T05:09:58.169Z,3.83
2018-10-05T05:12:25.806Z,4.07
2018-10-05T05:14:53.516Z,3.73
2018-10-05T05:17:21.178Z,4.00
2018-10-05T05:19:48.864Z,4.07
2018-10-05T05:22:16.491Z,3.70
2018-10-05T05:24:44.162Z,4.17
2018-10-05T05:27:11.807Z,4.30
2018-10-05T05:29:39.480Z,4.00
2018-10-05T05:32:07.151Z,4.03
2018-10-05T05:34:34.775Z,3.50
2018-10-05T05:37:02.908Z,3.77
2018-10-05T05:39:30.580Z,3.70
2018-10-05T05:41:58.457Z,3.60
2018-10-05T05:44:26.148Z,4.03
2018-10-05T05:46:53.898Z,3.63
2018-10-05T05:49:21.593Z,3.60
2018-10-05T05:51:49.268Z,3.30
2018-10-05T05:54:16.941Z,3.67
2018-10-05T05:56:44.858Z,3.43
2018-10-05T05:59:12.547Z,3.83
2018-10-05T06:01:40.235Z,3.40
2018-10-05T06:04:08.025Z,4.90
2018-10-05T06:06:35.969Z,5.87
2018-10-05T06:09:06.128Z,4.77
2018-10-05T06:11:33.997Z,4.67
2018-10-05T06:14:01.737Z,5.33
2018-10-05T06:16:29.518Z,5.37
2018-10-05T06:18:57.077Z,4.67
2018-10-05T06:21:25.020Z,4.17
2018-10-05T06:23:52.744Z,4.50
2018-10-05T06:26:20.515Z,4.50
2018-10-05T06:28:48.161Z,4.63
2018-10-05T06:31:15.839Z,3.97
2018-10-05T06:33:43.457Z,4.00
2018-10-05T06:36:12.190Z,4.27
2018-10-05T06:38:39.850Z,3.97
2018-10-05T06:41:07.565Z,3.47
2018-10-05T06:43:35.222Z,3.83
2018-10-05T06:46:02.913Z,3.83
2018-10-05T06:48:30.589Z,4.57
2018-10-05T06:50:58.248Z,3.87
2018-10-05T06:53:26.031Z,4.03
2018-10-05T06:55:53.568Z,3.77
2018-10-05T06:58:21.250Z,4.17
2018-10-05T07:00:49.041Z,4.00
2018-10-05T07:03:16.667Z,4.20
2018-10-05T07:05:44.490Z,4.00
2018-10-05T07:08:12.250Z,3.50
2018-10-05T07:10:39.968Z,3.30
2018-10-05T07:13:07.670Z,3.20
2018-10-05T07:15:35.349Z,3.53
2018-10-05T07:18:02.997Z,3.60
2018-10-05T07:20:31.186Z,4.40
2018-10-05T07:22:58.877Z,4.17
2018-10-05T07:25:26.605Z,3.90
2018-10-05T07:27:54.269Z,4.07
2018-10-05T07:30:21.922Z,4.07
2018-10-05T07:32:49.647Z,4.10
2018-10-05T07:35:17.305Z,4.83
2018-10-05T07:37:45.232Z,4.80
2018-10-05T07:40:12.873Z,4.50
2018-10-05T07:42:40.746Z,5.53
2018-10-05T07:45:08.484Z,5.67
2018-10-05T07:47:36.171Z,5.87
2018-10-05T07:50:04.164Z,6.40
2018-10-05T07:52:31.848Z,5.73
2018-10-05T07:54:59.538Z,5.87
2018-10-05T07:57:27.248Z,5.17
2018-10-05T07:59:55.100Z,5.90
2018-10-05T08:02:22.778Z,5.27
2018-10-05T08:04:50.491Z,6.50
2018-10-05T08:07:18.186Z,5.40
2018-10-05T08:09:45.861Z,12.20
2018-10-05T08:12:13.568Z,10.93
2018-10-05T08:14:41.243Z,10.08
2018-10-05T08:17:08.948Z,10.05
2018-10-05T08:19:36.604Z,8.38
2018-10-05T08:22:04.311Z,10.18
2018-10-05T08:24:31.996Z,7.37
2018-10-05T08:26:59.639Z,7.63
2018-10-05T08:29:27.342Z,6.90
2018-10-05T08:31:54.973Z,5.87
2018-10-05T08:34:22.748Z,5.95
2018-10-05T08:36:50.689Z,5.35
2018-10-05T08:39:18.337Z,8.13
2018-10-05T08:41:46.020Z,7.92
2018-10-05T08:44:13.724Z,6.50
2018-10-05T08:46:41.396Z,10.35
2018-10-05T08:49:09.053Z,13.67
2018-10-05T08:51:36.854Z,11.05
2018-10-05T08:54:04.540Z,11.63
2018-10-05T08:56:32.200Z,11.30
2018-10-05T08:58:59.832Z,8.83
2018-10-05T09:01:27.549Z,13.90
2018-10-05T09:03:55.477Z,12.15
2018-10-05T09:06:23.204Z,17.00
2018-10-05T09:08:50.867Z,14.73
2018-10-05T09:11:18.493Z,12.20
2018-10-05T09:13:46.530Z,13.22
2018-10-05T09:16:14.189Z,13.32
2018-10-05T09:18:42.504Z,13.13
2018-10-05T09:21:10.173Z,9.98
2018-10-05T09:23:38.076Z,11.20
2018-10-05T09:26:05.789Z,10.20
2018-10-05T09:28:33.450Z,9.85
2018-10-05T09:31:01.164Z,8.43
2018-10-05T09:33:28.823Z,6.60
2018-10-05T09:35:56.452Z,5.78
2018-10-05T09:38:24.325Z,5.33
2018-10-05T09:40:52.039Z,8.75
2018-10-05T09:43:19.667Z,7.25
2018-10-05T09:45:47.312Z,6.45
2018-10-05T09:48:14.945Z,5.20
2018-10-05T09:50:42.640Z,6.90
2018-10-05T09:53:16.917Z,6.12
2018-10-05T09:55:44.863Z,4.10
2018-10-05T09:58:12.753Z,3.90
2018-10-05T10:00:46.150Z,3.90
2018-10-05T10:03:19.384Z,5.40
2018-10-05T10:05:47.069Z,4.20
2018-10-05T10:08:14.880Z,6.25
2018-10-05T10:10:42.474Z,5.78
2018-10-05T10:13:10.254Z,4.67
2018-10-05T10:15:37.994Z,3.00
2018-10-05T10:18:05.813Z,3.75
2018-10-05T10:20:33.527Z,2.98
2018-10-05T10:23:01.407Z,3.00
2018-10-05T10:25:29.080Z,3.22
2018-10-05T10:27:56.691Z,3.10
2018-10-05T10:30:24.374Z,2.58
2018-10-05T10:32:52.256Z,2.92
2018-10-05T10:35:19.933Z,2.95
2018-10-05T10:37:47.828Z,2.65
2018-10-05T10:40:15.503Z,3.47
2018-10-05T10:42:43.305Z,3.62
2018-10-05T10:45:10.888Z,3.30
2018-10-05T10:47:38.579Z,2.30
2018-10-05T10:50:06.353Z,2.83
2018-10-05T10:52:34.190Z,2.50
2018-10-05T10:55:02.015Z,3.35
2018-10-05T10:57:29.688Z,4.25
2018-10-05T10:59:57.611Z,3.55
2018-10-05T11:02:25.268Z,3.20
2018-10-05T11:04:52.964Z,2.40
2018-10-05T11:07:20.752Z,2.87
2018-10-05T11:09:48.432Z,3.43
2018-10-05T11:12:16.113Z,2.50
2018-10-05T11:14:43.801Z,3.05
2018-10-05T11:17:11.732Z,3.20
2018-10-05T11:19:39.313Z,2.55
2018-10-05T11:22:07.193Z,3.05
2018-10-05T11:24:35.027Z,3.00
2018-10-05T11:27:03.029Z,2.62
2018-10-05T11:29:31.058Z,4.10
2018-10-05T11:31:58.809Z,3.12
2018-10-05T11:34:26.480Z,2.67
2018-10-05T11:36:54.180Z,2.83
2018-10-05T11:39:21.804Z,2.20
2018-10-05T11:41:49.465Z,2.08
2018-10-05T11:44:17.133Z,2.50
2018-10-05T11:46:44.853Z,2.45
2018-10-05T11:49:13.072Z,2.83
2018-10-05T11:51:40.949Z,2.55
2018-10-05T11:54:08.788Z,2.50
2018-10-05T11:56:36.445Z,2.40
2018-10-05T11:59:04.082Z,2.62
2018-10-05T12:01:33.600Z,2.20
2018-10-05T12:04:01.342Z,2.17
2018-10-05T12:06:29.276Z,1.87
2018-10-05T12:08:57.228Z,2.52
2018-10-05T12:11:24.989Z,3.45
2018-10-05T12:13:52.680Z,4.03
2018-10-05T12:16:20.461Z,4.95
2018-10-05T12:18:48.125Z,4.20
2018-10-05T12:21:16.114Z,3.37
2018-10-05T12:23:43.919Z,3.22
2018-10-05T12:26:12.001Z,2.62
2018-10-05T12:28:39.719Z,3.00
2018-10-05T12:33:41.897Z,3.22
2018-10-05T12:36:28.842Z,2.40
2018-10-05T12:38:56.519Z,3.25
2018-10-05T12:41:24.329Z,2.60
2018-10-05T12:43:52.211Z,4.03
2018-10-05T12:46:19.944Z,3.25
2018-10-05T12:48:47.704Z,3.45
2018-10-05T12:51:18.614Z,2.95
2018-10-05T12:53:55.234Z,3.00
2018-10-05T12:56:23.081Z,2.60
2018-10-05T12:58:50.916Z,3.08
2018-10-05T13:01:18.655Z,2.85
2018-10-05T13:03:46.366Z,2.65
2018-10-05T13:06:15.390Z,3.45
2018-10-05T13:08:43.142Z,2.73
2018-10-05T13:11:13.873Z,2.80
2018-10-05T13:13:41.715Z,8.00
2018-10-05T13:16:09.543Z,10.30
2018-10-05T13:18:37.283Z,6.95
2018-10-05T13:21:05.358Z,5.28
2018-10-05T13:23:33.069Z,4.20
2018-10-05T13:26:00.821Z,3.47
2018-10-05T13:28:28.812Z,3.30
2018-10-05T13:30:56.590Z,3.65
2018-10-05T13:33:25.329Z,3.58
2018-10-05T13:35:53.017Z,3.55
2018-10-05T13:38:20.803Z,3.50
2018-10-05T13:40:48.503Z,3.52
2018-10-05T13:43:16.189Z,3.80
2018-10-05T13:45:43.897Z,3.50
2018-10-05T13:48:11.688Z,3.77
2018-10-05T13:50:39.441Z,3.52
2018-10-05T13:53:07.342Z,3.80
2018-10-05T13:55:35.001Z,3.27
2018-10-05T13:58:02.718Z,3.20
2018-10-05T14:00:42.929Z,2.70
2018-10-05T14:03:10.632Z,2.75
2018-10-05T14:05:38.294Z,2.77
2018-10-05T14:08:06.000Z,3.42
2018-10-05T14:10:33.760Z,3.05
2018-10-05T14:13:01.427Z,2.47
2018-10-05T14:15:29.437Z,3.30
2018-10-05T14:17:57.097Z,4.55
2018-10-05T14:20:24.814Z,4.45
2018-10-05T14:22:52.811Z,4.85
2018-10-05T14:25:20.826Z,4.33
2018-10-05T14:27:48.718Z,4.55
2018-10-05T14:30:16.637Z,4.12
2018-10-05T14:32:44.349Z,3.75
2018-10-05T14:35:12.051Z,3.17
2018-10-05T14:37:39.693Z,2.72
2018-10-05T14:40:07.445Z,3.27
2018-10-05T14:42:35.135Z,3.42
2018-10-05T14:45:02.793Z,3.58
2018-10-05T14:47:30.445Z,3.72
2018-10-05T14:49:58.405Z,3.62
2018-10-05T14:52:26.379Z,4.25
2018-10-05T14:54:55.037Z,4.20
2018-10-05T14:57:23.012Z,4.20
2018-10-05T14:59:51.678Z,3.62
2018-10-05T15:02:19.382Z,3.80
2018-10-05T15:04:47.503Z,4.22
2018-10-05T15:07:15.607Z,3.93
2018-10-05T15:09:43.640Z,3.95
2018-10-05T15:12:11.309Z,4.53
2018-10-05T15:14:39.200Z,4.33
2018-10-05T15:17:06.889Z,5.87
2018-10-05T15:19:34.639Z,5.00
2018-10-05T15:22:02.419Z,4.17
2018-10-05T15:24:30.153Z,4.20
2018-10-05T15:26:57.952Z,4.65
2018-10-05T15:29:25.642Z,3.92
2018-10-05T15:31:53.267Z,3.20
2018-10-05T15:34:21.211Z,3.47
2018-10-05T15:36:48.927Z,3.50
2018-10-05T15:39:16.596Z,3.85
2018-10-05T15:41:44.569Z,4.03
2018-10-05T15:44:12.356Z,4.62
2018-10-05T15:47:13.160Z,4.53
2018-10-05T15:49:41.244Z,4.03
2018-10-05T15:52:08.992Z,5.00
2018-10-05T15:54:36.832Z,4.20
2018-10-05T15:57:04.868Z,4.42
2018-10-05T15:59:33.472Z,4.58
2018-10-05T16:02:01.262Z,5.08
2018-10-05T16:04:29.220Z,4.97
2018-10-05T16:06:57.160Z,3.90
2018-10-05T16:09:24.942Z,4.72
2018-10-05T16:11:52.745Z,5.00
2018-10-05T16:14:20.447Z,4.83
2018-10-05T16:16:48.123Z,4.30
2018-10-05T16:19:15.902Z,3.58
2018-10-05T16:21:43.635Z,3.42
2018-10-05T16:24:45.769Z,3.98
2018-10-05T16:27:13.834Z,3.50
2018-10-05T16:29:41.493Z,2.92
2018-10-05T16:32:10.140Z,2.90
2018-10-05T16:34:37.882Z,2.70
2018-10-05T16:37:06.093Z,2.52
2018-10-05T16:39:34.053Z,2.40
2018-10-05T16:42:01.829Z,2.40
2018-10-05T16:44:29.595Z,2.50
2018-10-05T16:46:57.335Z,2.47
2018-10-05T16:49:25.961Z,2.30
2018-10-05T16:51:53.615Z,2.25
2018-10-05T16:54:21.529Z,2.47
2018-10-05T16:56:49.177Z,2.20
2018-10-05T16:59:16.886Z,3.72
2018-10-05T17:01:44.625Z,3.10
2018-10-05T17:04:12.405Z,3.33
2018-10-05T17:06:40.101Z,3.67
2018-10-05T17:09:09.116Z,4.58
2018-10-05T17:11:38.142Z,4.70
2018-10-05T17:14:05.904Z,3.92
2018-10-05T17:16:33.601Z,4.20
2018-10-05T17:19:01.686Z,3.60
2018-10-05T17:21:29.558Z,3.62
2018-10-05T17:23:57.261Z,4.00
2018-10-05T17:26:25.555Z,3.75
2018-10-05T17:28:53.308Z,3.83
2018-10-05T17:31:21.057Z,3.70
2018-10-05T17:33:48.696Z,3.50
2018-10-05T17:36:16.448Z,3.62
2018-10-05T17:38:44.214Z,3.20
2018-10-05T17:41:11.873Z,3.00
2018-10-05T17:43:39.512Z,3.27
2018-10-05T17:46:07.228Z,3.57
2018-10-05T17:48:34.921Z,3.45
2018-10-05T17:51:02.804Z,3.55
2018-10-05T17:53:30.489Z,3.45
2018-10-05T17:55:58.319Z,3.67
2018-10-05T17:58:26.044Z,4.05
2018-10-05T18:00:53.841Z,4.08
2018-10-05T18:03:21.511Z,4.30
2018-10-05T18:05:49.150Z,3.95
2018-10-05T18:08:16.917Z,3.77
2018-10-05T18:10:44.587Z,5.12
2018-10-05T18:13:12.259Z,4.20
2018-10-05T18:15:39.935Z,4.67
2018-10-05T18:18:08.112Z,4.53
2018-10-05T18:20:35.965Z,4.40
2018-10-05T18:23:03.719Z,3.87
2018-10-05T18:25:31.616Z,3.85
2018-10-05T18:27:59.301Z,4.08
2018-10-05T18:30:26.968Z,4.17
2018-10-05T18:32:54.949Z,4.60
2018-10-05T18:35:22.567Z,4.12
2018-10-05T18:37:50.247Z,4.85
2018-10-05T18:40:17.944Z,5.90
2018-10-05T18:42:45.655Z,5.67
2018-10-05T18:45:13.482Z,5.17
2018-10-05T18:47:41.137Z,6.03
2018-10-05T18:50:08.845Z,5.47
2018-10-05T18:52:36.596Z,4.97
2018-10-05T18:55:04.343Z,5.40
2018-10-05T18:57:32.110Z,4.80
2018-10-05T18:59:59.776Z,4.42
2018-10-05T19:02:27.479Z,6.08
2018-10-05T19:04:55.321Z,5.65
2018-10-05T19:07:23.537Z,5.75
2018-10-05T19:09:51.398Z,6.85
2018-10-05T19:12:19.060Z,7.30
2018-10-05T19:14:46.771Z,7.87
2018-10-05T19:17:14.853Z,7.53
2018-10-05T19:19:42.781Z,6.00
2018-10-05T19:22:10.444Z,5.90
2018-10-05T19:24:38.149Z,6.10
2018-10-05T19:27:06.083Z,5.62
2018-10-05T19:29:33.850Z,5.87
2018-10-05T19:32:01.506Z,5.97
2018-10-05T19:34:29.244Z,6.60
2018-10-05T19:36:56.881Z,5.27
2018-10-05T19:39:24.808Z,4.70
2018-10-05T19:41:52.504Z,4.60
2018-10-05T19:44:20.206Z,4.80
2018-10-05T19:46:47.944Z,5.50
2018-10-05T19:49:15.826Z,5.05
2018-10-05T19:51:43.461Z,5.73
2018-10-05T19:54:11.224Z,6.37
2018-10-05T19:56:39.085Z,6.00
2018-10-05T19:59:06.866Z,6.40
2018-10-05T20:01:34.558Z,6.23
2018-10-05T20:04:02.256Z,5.50
2018-10-05T20:06:29.929Z,5.90
2018-10-05T20:08:57.647Z,6.27
2018-10-05T20:11:25.318Z,5.70
2018-10-05T20:13:53.145Z,5.77
2018-10-05T20:16:20.785Z,5.33
2018-10-05T20:18:48.484Z,5.43
2018-10-05T20:21:16.178Z,5.50
2018-10-05T20:23:43.857Z,5.60
2018-10-05T20:26:11.741Z,5.80
2018-10-05T20:28:39.410Z,6.07
2018-10-05T20:31:07.235Z,6.13
2018-10-05T20:33:34.975Z,6.30
2018-10-05T20:36:02.762Z,6.43
2018-10-05T20:38:30.548Z,6.73
2018-10-05T20:40:58.189Z,6.30
2018-10-05T20:43:25.949Z,5.57
2018-10-05T20:45:53.680Z,5.97
2018-10-05T20:48:21.454Z,6.07
2018-10-05T20:50:49.214Z,6.40
2018-10-05T20:53:17.478Z,6.00
2018-10-05T20:55:45.265Z,5.87
2018-10-05T20:58:12.917Z,5.57
2018-10-05T21:00:40.627Z,5.13
2018-10-05T21:03:08.315Z,4.60
2018-10-05T21:05:36.001Z,4.20
2018-10-05T21:08:04.001Z,4.40
2018-10-05T21:10:31.648Z,5.47
2018-10-05T21:12:59.398Z,5.33
2018-10-05T21:15:27.387Z,4.90
2018-10-05T21:17:55.183Z,4.00
2018-10-05T21:20:22.919Z,4.30
2018-10-05T21:22:50.681Z,3.97
2018-10-05T21:25:18.420Z,4.03
2018-10-05T21:27:46.125Z,4.23
2018-10-05T21:30:13.845Z,5.20
2018-10-05T21:32:41.550Z,5.07
2018-10-05T21:35:09.272Z,4.97
2018-10-05T21:37:37.392Z,4.37
2018-10-05T21:40:05.285Z,3.97
2018-10-05T21:42:32.961Z,4.63
2018-10-05T21:45:00.969Z,4.50
2018-10-05T21:47:28.719Z,3.67
2018-10-05T21:49:56.440Z,3.90
2018-10-05T21:52:24.332Z,4.10
2018-10-05T21:54:52.090Z,3.63
2018-10-05T21:57:19.813Z,4.53
2018-10-05T21:59:47.580Z,4.53
2018-10-05T22:02:15.367Z,4.00
2018-10-05T22:04:43.197Z,3.80
2018-10-05T22:07:10.935Z,3.97
2018-10-05T22:09:38.690Z,3.50
2018-10-05T22:12:06.877Z,3.70
2018-10-05T22:14:34.636Z,4.60
2018-10-05T22:17:02.669Z,4.53
2018-10-05T22:19:30.503Z,5.47
2018-10-05T22:21:58.338Z,4.77
2018-10-05T22:24:26.126Z,4.53
2018-10-05T22:26:53.799Z,5.07
2018-10-05T22:29:21.665Z,4.80
2018-10-05T22:31:49.429Z,4.63
2018-10-05T22:34:17.235Z,5.67
2018-10-05T22:36:44.984Z,4.80
2018-10-05T22:39:12.723Z,5.40
2018-10-05T22:41:40.468Z,4.40
2018-10-05T22:44:08.449Z,4.07
2018-10-05T22:46:36.246Z,4.20
2018-10-05T22:49:05.179Z,3.60
2018-10-05T22:51:33.247Z,3.60
2018-10-05T22:54:01.038Z,3.57
2018-10-05T22:56:28.954Z,3.17
2018-10-05T22:58:56.768Z,3.37
2018-10-05T23:01:24.685Z,3.10
2018-10-05T23:03:52.437Z,4.03
2018-10-05T23:06:20.204Z,4.67
2018-10-05T23:08:48.038Z,4.13
2018-10-05T23:11:16.025Z,3.80
2018-10-05T23:13:44.534Z,3.97
2018-10-05T23:16:12.281Z,6.00
2018-10-05T23:18:40.391Z,5.13
2018-10-05T23:21:08.296Z,4.40
2018-10-05T23:23:36.163Z,6.03
2018-10-05T23:26:03.979Z,5.70
2018-10-05T23:28:31.784Z,4.97
2018-10-05T23:30:59.618Z,5.17
2018-10-05T23:33:27.543Z,5.80
2018-10-05T23:35:55.414Z,6.10
2018-10-05T23:38:23.224Z,8.03
2018-10-05T23:40:51.037Z,8.70
2018-10-05T23:43:18.924Z,6.80
2018-10-05T23:45:46.939Z,6.03
2018-10-05T23:48:14.704Z,5.93
2018-10-05T23:50:43.447Z,5.60
2018-10-05T23:53:11.333Z,6.60
2018-10-05T23:55:39.200Z,5.67
2018-10-05T23:58:06.995Z,5.63
